TimeAKDT,TemperatureF,Dew PointF,Humidity,Sea Level PressureIn,VisibilityMPH,Wind Direction,Wind SpeedMPH,Gust SpeedMPH,PrecipitationIn,Events,Conditions,WindDirDegrees,DateUTC
12:53 AM,55.9,37.9,51,29.96,10.0,NNW,11.5,-,N/A,,Overcast,330,2013-05-23 08:53:00
1:53 AM,55.0,39.0,55,29.96,10.0,NNW,6.9,-,N/A,,Scattered Clouds,330,2013-05-23 09:53:00
2:53 AM,55.0,37.9,53,29.96,10.0,NNW,9.2,-,N/A,,Overcast,330,2013-05-23 10:53:00
3:53 AM,54.0,37.9,55,29.95,10.0,NNW,8.1,-,N/A,,Overcast,330,2013-05-23 11:53:00
4:53 AM,53.1,37.9,57,29.94,10.0,NNW,10.4,-,N/A,,Overcast,330,2013-05-23 12:53:00
5:53 AM,53.1,37.9,57,29.93,10.0,NNW,9.2,-,N/A,,Overcast,330,2013-05-23 13:53:00
6:53 AM,53.1,37.9,57,29.93,10.0,NNW,10.4,-,N/A,,Overcast,330,2013-05-23 14:53:00
7:53 AM,55.0,37.9,53,29.92,10.0,NNW,12.7,-,N/A,,Clear,330,2013-05-23 15:53:00
8:53 AM,57.0,37.9,49,29.93,10.0,NNW,10.4,-,N/A,,Clear,340,2013-05-23 16:53:00
9:53 AM,57.9,39.9,51,29.93,10.0,NW,9.2,-,N/A,,Overcast,310,2013-05-23 17:53:00
10:53 AM,60.1,39.0,46,29.92,10.0,NW,9.2,-,N/A,,Overcast,310,2013-05-23 18:53:00
11:53 AM,60.1,39.0,46,29.90,10.0,NW,10.4,-,N/A,,Mostly Cloudy,310,2013-05-23 19:53:00
12:53 PM,63.0,39.0,41,29.88,10.0,NW,10.4,-,N/A,,Clear,320,2013-05-23 20:53:00
1:53 PM,66.9,39.9,37,29.89,10.0,West,6.9,-,N/A,,Mostly Cloudy,280,2013-05-23 21:53:00
2:53 PM,68.0,39.9,36,29.88,10.0,NW,5.8,-,N/A,,Mostly Cloudy,310,2013-05-23 22:53:00
3:53 PM,66.9,41.0,39,29.88,10.0,WNW,8.1,-,N/A,,Mostly Cloudy,300,2013-05-23 23:53:00
4:53 PM,64.9,42.1,43,29.88,10.0,WNW,6.9,-,N/A,,Mostly Cloudy,300,2013-05-24 00:53:00
5:53 PM,64.9,42.1,43,29.88,10.0,NNW,5.8,-,N/A,,Scattered Clouds,330,2013-05-24 01:53:00
6:53 PM,64.0,42.1,45,29.88,10.0,NNW,5.8,-,N/A,,Clear,340,2013-05-24 02:53:00
7:53 PM,62.1,41.0,46,29.88,10.0,Calm,Calm,-,N/A,,Partly Cloudy,0,2013-05-24 03:53:00
8:53 PM,57.0,44.1,62,29.89,10.0,Calm,Calm,-,N/A,,Clear,0,2013-05-24 04:53:00
9:53 PM,55.0,45.0,69,29.90,10.0,SSE,4.6,-,N/A,,Clear,150,2013-05-24 05:53:00
10:53 PM,54.0,46.9,77,29.91,10.0,SE,6.9,-,N/A,,Mostly Cloudy,140,2013-05-24 06:53:00
11:53 PM,53.1,46.9,80,29.92,10.0,ESE,11.5,-,N/A,,Overcast,120,2013-05-24 07:53:00